createdAt,value
2022-10-18T00:02:25.208Z,100862.50
2022-10-18T00:06:28.226Z,100869.56
2022-10-18T00:10:31.244Z,100862.50
2022-10-18T00:14:34.248Z,100866.00
2022-10-18T00:18:38.664Z,100860.69
2022-10-18T00:22:42.508Z,100866.00
2022-10-18T00:26:45.481Z,100861.56
2022-10-18T00:34:57.850Z,100853.59
2022-10-18T00:39:01.642Z,100843.00
2022-10-18T00:43:04.671Z,100850.06
2022-10-18T00:47:11.003Z,100848.28
2022-10-18T00:51:16.384Z,100848.25
2022-10-18T00:55:20.131Z,100847.34
2022-10-18T00:59:24.221Z,100842.03
2022-10-18T01:03:27.372Z,100839.41
2022-10-18T01:07:44.268Z,100834.94
2022-10-18T01:12:10.632Z,100827.00
2022-10-18T01:16:22.537Z,100826.09
2022-10-18T01:20:57.037Z,100813.69
2022-10-18T01:25:10.826Z,100812.78
2022-10-18T01:29:21.792Z,100812.75
2022-10-18T01:33:34.744Z,100810.09
2022-10-18T01:37:39.163Z,100810.09
2022-10-18T01:41:44.465Z,100813.66
2022-10-18T01:45:48.814Z,100822.47
2022-10-18T01:49:59.492Z,100818.97
2022-10-18T01:54:03.278Z,100814.53
2022-10-18T01:58:15.081Z,100812.75
2022-10-18T02:02:30.072Z,100811.84
2022-10-18T02:06:40.491Z,100809.16
2022-10-18T02:10:47.516Z,100813.56
2022-10-18T02:14:51.748Z,100816.13
2022-10-18T02:19:01.849Z,100810.81
2022-10-18T02:23:08.519Z,100814.31
2022-10-18T02:27:12.235Z,100808.97
2022-10-18T02:31:20.074Z,100808.94
2022-10-18T02:35:27.020Z,100805.41
2022-10-18T02:39:35.304Z,100815.94
2022-10-18T02:43:38.448Z,100821.19
2022-10-18T02:47:41.585Z,100814.13
2022-10-18T02:51:44.943Z,100821.16
2022-10-18T02:55:49.330Z,100819.34
2022-10-18T02:59:52.329Z,100814.91
2022-10-18T03:03:55.379Z,100818.44
2022-10-18T03:07:58.618Z,100815.78
2022-10-18T03:12:03.022Z,100812.22
2022-10-18T03:16:06.577Z,100822.78
2022-10-18T03:20:10.462Z,100817.41
2022-10-18T03:24:13.431Z,100823.56
2022-10-18T03:28:17.873Z,100819.13
2022-10-18T03:32:20.871Z,100819.13
2022-10-18T03:36:23.899Z,100826.19
2022-10-18T03:40:27.064Z,100833.22
2022-10-18T03:44:31.727Z,100847.31
2022-10-18T03:48:34.949Z,100855.22
2022-10-18T03:52:37.946Z,100856.06
2022-10-18T03:56:41.166Z,100854.25
2022-10-18T04:00:45.569Z,100855.97
2022-10-18T04:04:48.579Z,100862.94
2022-10-18T04:08:51.795Z,100862.94
2022-10-18T04:12:54.805Z,100861.16
2022-10-18T04:16:59.194Z,100850.50
2022-10-18T04:21:02.342Z,100846.88
2022-10-18T04:25:06.219Z,100844.13
2022-10-18T04:29:09.288Z,100844.13
2022-10-18T04:33:13.867Z,100842.34
2022-10-18T04:37:17.520Z,100843.19
2022-10-18T04:41:20.500Z,100856.41
2022-10-18T04:45:23.536Z,100863.41
2022-10-18T04:49:27.948Z,100862.47
2022-10-18T04:53:31.207Z,100856.25
2022-10-18T04:57:34.395Z,100860.59
2022-10-18T05:01:37.655Z,100857.00
2022-10-18T05:06:00.847Z,100849.94
2022-10-18T05:10:05.131Z,100851.59
2022-10-18T05:14:10.164Z,100855.97
2022-10-18T05:18:13.358Z,100841.88
2022-10-18T05:22:17.761Z,100842.72
2022-10-18T05:26:21.316Z,100847.97
2022-10-18T05:30:24.411Z,100855.94
2022-10-18T05:34:31.873Z,100853.31
2022-10-18T05:38:39.068Z,100867.41
2022-10-18T05:42:42.303Z,100868.31
2022-10-18T05:46:53.542Z,100867.44
2022-10-18T05:51:00.508Z,100872.75
2022-10-18T05:55:05.490Z,100866.59
2022-10-18T05:59:12.318Z,100869.25
2022-10-18T06:03:15.832Z,100867.47
2022-10-18T06:07:18.844Z,100861.34
2022-10-18T06:11:23.275Z,100858.69
2022-10-18T06:15:26.444Z,100865.72
2022-10-18T06:19:29.455Z,100873.63
2022-10-18T06:23:32.651Z,100875.44
2022-10-18T06:27:37.076Z,100871.91
2022-10-18T06:31:40.087Z,100872.78
2022-10-18T06:35:43.102Z,100886.03
2022-10-18T06:39:46.072Z,100889.59
2022-10-18T06:43:51.289Z,100895.81
2022-10-18T06:47:54.455Z,100894.19
2022-10-18T06:51:57.530Z,100903.03
2022-10-18T06:56:01.731Z,100900.44
2022-10-18T07:00:08.118Z,100910.19
2022-10-18T07:04:11.108Z,100905.00
2022-10-18T07:08:14.089Z,100904.19
2022-10-18T07:12:17.869Z,100909.59
2022-10-18T07:16:22.500Z,100896.53
2022-10-18T07:20:25.524Z,100906.34
2022-10-18T07:24:28.542Z,100909.97
2022-10-18T07:28:31.857Z,100904.75
2022-10-18T07:32:36.328Z,100899.53
2022-10-18T07:36:39.825Z,100890.81
2022-10-18T07:40:42.872Z,100887.38
2022-10-18T07:44:45.879Z,100890.97
2022-10-18T07:48:50.837Z,100891.00
2022-10-18T07:52:53.845Z,100884.88
2022-10-18T07:56:56.864Z,100888.47
2022-10-18T08:01:04.228Z,100890.31
2022-10-18T08:05:09.565Z,100888.63
2022-10-18T08:09:12.567Z,100887.78
2022-10-18T08:13:15.884Z,100879.88
2022-10-18T08:17:19.068Z,100880.78
2022-10-18T08:21:23.567Z,100881.66
2022-10-18T08:25:26.691Z,100880.78
2022-10-18T08:29:32.052Z,100882.63
2022-10-18T08:33:36.226Z,100884.41
2022-10-18T08:37:41.231Z,100887.06
2022-10-18T08:42:12.657Z,100883.59
2022-10-18T08:46:15.920Z,100872.13
2022-10-18T08:50:22.179Z,100869.56
2022-10-18T08:54:32.044Z,100863.38
2022-10-18T08:58:35.091Z,100851.03
2022-10-18T09:02:46.003Z,100847.50
2022-10-18T09:06:57.267Z,100847.53
2022-10-18T09:11:16.105Z,100830.75
2022-10-18T09:15:34.198Z,100836.06
2022-10-18T09:19:55.089Z,100834.28
2022-10-18T09:24:06.777Z,100842.31
2022-10-18T09:28:18.164Z,100843.16
2022-10-18T09:32:33.435Z,100829.00
2022-10-18T09:36:39.464Z,100835.19
2022-10-18T09:40:54.568Z,100834.25
2022-10-18T09:45:02.918Z,100827.13
2022-10-18T09:49:14.240Z,100820.03
2022-10-18T09:53:27.617Z,100819.09
2022-10-18T09:57:36.778Z,100811.06
2022-10-18T10:01:41.282Z,100809.25
2022-10-18T10:05:44.791Z,100809.16
2022-10-18T10:09:49.936Z,100802.03
2022-10-18T10:13:52.952Z,100794.00
2022-10-18T10:17:58.884Z,100793.03
2022-10-18T10:22:06.633Z,100789.41
2022-10-18T10:26:24.181Z,100792.91
2022-10-18T10:30:29.308Z,100789.25
2022-10-18T10:34:33.730Z,100790.09
2022-10-18T10:38:36.723Z,100790.91
2022-10-18T10:42:59.990Z,100792.59
2022-10-18T10:47:27.718Z,100782.81
2022-10-18T10:51:34.258Z,100770.31
2022-10-18T10:55:37.599Z,100758.72
2022-10-18T10:59:45.464Z,100762.22
2022-10-18T11:03:49.865Z,100761.19
2022-10-18T11:07:58.152Z,100751.41
2022-10-18T11:12:09.365Z,100748.69
2022-10-18T11:16:17.656Z,100734.38
2022-10-18T11:20:28.780Z,100724.56
2022-10-18T11:24:33.317Z,100728.03
2022-10-18T11:28:49.852Z,100720.00
2022-10-18T11:33:03.223Z,100717.25
2022-10-18T11:37:29.409Z,100716.19
2022-10-18T11:41:40.913Z,100709.81
2022-10-18T11:45:51.087Z,100702.66
2022-10-18T11:50:08.156Z,100704.44
2022-10-18T11:54:26.427Z,100701.69
2022-10-18T11:59:03.836Z,100707.00
2022-10-18T12:03:33.420Z,100700.78
2022-10-18T12:07:43.139Z,100698.00
2022-10-18T12:11:55.481Z,100697.81
2022-10-18T12:16:01.866Z,100684.38
2022-10-18T12:20:12.579Z,100689.53
2022-10-18T12:24:19.990Z,100675.25
2022-10-18T12:28:34.586Z,100672.47
2022-10-18T12:32:44.728Z,100659.97
2022-10-18T12:37:18.078Z,100665.22
2022-10-18T12:41:24.590Z,100649.13
2022-10-18T12:45:33.444Z,100646.47
2022-10-18T12:49:42.680Z,100651.69
2022-10-18T12:53:50.448Z,100642.78
2022-10-18T12:58:23.469Z,100630.31
2022-10-18T13:02:31.947Z,100626.75
2022-10-18T13:07:00.887Z,100613.34
2022-10-18T13:11:36.089Z,100609.75
2022-10-18T13:15:45.627Z,100615.97
2022-10-18T13:20:24.037Z,100607.94
2022-10-18T13:24:33.239Z,100598.19
2022-10-18T13:28:46.144Z,100593.72
2022-10-18T13:32:57.680Z,100587.44
2022-10-18T13:37:03.283Z,100588.28
2022-10-18T13:41:08.896Z,100577.50
2022-10-18T13:45:56.525Z,100573.06
2022-10-18T13:50:39.464Z,100574.78
2022-10-18T13:54:59.777Z,100566.75
2022-10-18T13:59:26.208Z,100564.09
2022-10-18T14:04:14.110Z,100556.94
2022-10-18T14:08:22.276Z,100553.41
2022-10-18T14:12:32.298Z,100557.00
2022-10-18T14:16:41.350Z,100551.69
2022-10-18T14:21:12.264Z,100545.47
2022-10-18T14:25:23.549Z,100553.47
2022-10-18T14:29:26.586Z,100553.56
2022-10-18T14:33:34.720Z,100546.47
2022-10-18T14:37:40.242Z,100548.25
2022-10-18T14:41:50.547Z,100548.28
2022-10-18T14:45:53.585Z,100536.72
2022-10-18T14:49:57.812Z,100539.28
2022-10-18T14:54:02.496Z,100523.28
2022-10-18T14:58:15.691Z,100532.22
2022-10-18T15:02:22.489Z,100523.34
2022-10-18T15:06:25.743Z,100528.75
2022-10-18T15:10:33.381Z,100530.63
2022-10-18T15:14:37.895Z,100521.69
2022-10-18T15:18:41.496Z,100530.66
2022-10-18T15:22:47.625Z,100540.56
2022-10-18T15:26:53.599Z,100523.78
2022-10-18T15:30:58.750Z,100522.09
2022-10-18T15:35:10.121Z,100511.56
2022-10-18T15:39:18.594Z,100510.78
2022-10-18T15:43:38.721Z,100509.09
2022-10-18T15:47:57.356Z,100520.69
2022-10-18T15:52:35.200Z,100519.03
2022-10-18T15:56:41.432Z,100517.44
2022-10-18T16:00:47.751Z,100526.44
2022-10-18T16:04:51.031Z,100521.16
2022-10-18T16:08:55.224Z,100523.13
2022-10-18T16:12:58.250Z,100525.00
2022-10-18T16:17:06.297Z,100524.19
2022-10-18T16:21:17.968Z,100535.00
2022-10-18T16:25:20.940Z,100528.91
2022-10-18T16:29:26.899Z,100530.81
2022-10-18T16:33:31.942Z,100529.13
2022-10-18T16:37:35.157Z,100523.84
2022-10-18T16:41:38.359Z,100523.84
2022-10-18T16:45:41.669Z,100520.28
2022-10-18T16:49:46.927Z,100527.34
2022-10-18T16:53:50.288Z,100530.94
2022-10-18T16:57:53.301Z,100527.34
2022-10-18T17:01:56.501Z,100530.03
2022-10-18T17:06:00.966Z,100522.13
2022-10-18T17:10:04.263Z,100527.53
2022-10-18T17:14:07.336Z,100522.28
2022-10-18T17:18:15.603Z,100523.25
2022-10-18T17:22:19.930Z,100526.03
2022-10-18T17:26:29.317Z,100524.28
2022-10-18T17:30:33.501Z,100523.44
2022-10-18T17:34:37.127Z,100519.00
2022-10-18T17:38:41.618Z,100512.84
2022-10-18T17:42:44.800Z,100523.59
2022-10-18T17:46:47.874Z,100523.63
2022-10-18T17:50:50.911Z,100522.81
2022-10-18T17:54:55.333Z,100526.50
2022-10-18T17:58:58.399Z,100517.75
2022-10-18T18:03:02.108Z,100520.50
2022-10-18T18:07:05.447Z,100524.09
2022-10-18T18:11:09.983Z,100520.63
2022-10-18T18:15:13.396Z,100524.25
2022-10-18T18:19:18.964Z,100514.59
2022-10-18T18:23:22.779Z,100508.44
2022-10-18T18:27:27.177Z,100512.03
2022-10-18T18:31:34.417Z,100518.28
2022-10-18T18:35:41.767Z,100516.56
2022-10-18T18:39:44.802Z,100505.13
2022-10-18T18:43:52.471Z,100508.66
2022-10-18T18:47:55.478Z,100500.69
2022-10-18T18:51:58.727Z,100512.28
2022-10-18T18:56:03.577Z,100506.97
2022-10-18T19:00:10.571Z,100514.09
2022-10-18T19:04:13.876Z,100516.78
2022-10-18T19:08:16.904Z,100522.13
2022-10-18T19:12:21.288Z,100520.41
2022-10-18T19:16:28.181Z,100511.53
2022-10-18T19:20:31.402Z,100507.19
2022-10-18T19:24:34.393Z,100500.19
2022-10-18T19:28:37.462Z,100497.56
2022-10-18T19:32:41.807Z,100495.03
2022-10-18T19:36:46.963Z,100504.81
2022-10-18T19:40:53.756Z,100502.22
2022-10-18T19:44:56.877Z,100510.19
2022-10-18T19:49:01.294Z,100508.44
2022-10-18T19:53:04.422Z,100513.81
2022-10-18T19:57:07.706Z,100514.69
2022-10-18T20:01:10.867Z,100520.06
2022-10-18T20:05:15.678Z,100516.56
2022-10-18T20:09:21.346Z,100520.97
2022-10-18T20:13:24.358Z,100526.28
2022-10-18T20:17:27.347Z,100526.28
2022-10-18T20:21:35.574Z,100533.38
2022-10-18T20:25:38.738Z,100533.38
2022-10-18T20:29:41.700Z,100537.81
2022-10-18T20:33:45.771Z,100542.25
2022-10-18T20:37:50.183Z,100533.34
2022-10-18T20:41:53.289Z,100543.91
2022-10-18T20:46:00.163Z,100534.97
2022-10-18T20:50:03.319Z,100529.53
2022-10-18T20:54:08.745Z,100532.13
2022-10-18T20:58:11.883Z,100526.75
2022-10-18T21:02:15.075Z,100524.94
2022-10-18T21:06:20.203Z,100526.66
2022-10-18T21:10:24.880Z,100533.69
2022-10-18T21:14:27.891Z,100535.47
2022-10-18T21:18:33.027Z,100531.88
2022-10-18T21:22:36.133Z,100531.78
2022-10-18T21:26:40.786Z,100537.94
2022-10-18T21:30:43.880Z,100538.78
2022-10-18T21:34:46.903Z,100539.69
2022-10-18T21:38:50.191Z,100544.94
2022-10-18T21:42:54.582Z,100544.94
2022-10-18T21:46:57.745Z,100540.53
2022-10-18T21:51:04.415Z,100539.63
2022-10-18T21:55:08.383Z,100537.88
2022-10-18T21:59:14.115Z,100541.41
2022-10-18T22:03:17.084Z,100528.97
2022-10-18T22:07:20.093Z,100521.84
2022-10-18T22:11:26.148Z,100508.53
2022-10-18T22:15:30.765Z,100512.13
2022-10-18T22:19:33.867Z,100518.34
2022-10-18T22:23:42.506Z,100515.75
2022-10-18T22:27:45.604Z,100510.44
2022-10-18T22:31:51.547Z,100507.78
2022-10-18T22:35:54.551Z,100516.66
2022-10-18T22:39:57.632Z,100521.13
2022-10-18T22:44:03.423Z,100529.13
2022-10-18T22:48:08.728Z,100533.56
2022-10-18T22:52:11.709Z,100542.41
2022-10-18T22:56:17.547Z,100545.06
2022-10-18T23:00:20.546Z,100547.72
2022-10-18T23:04:25.027Z,100546.88
2022-10-18T23:08:28.614Z,100553.97
2022-10-18T23:12:31.892Z,100552.22
2022-10-18T23:16:35.534Z,100564.63
2022-10-18T23:20:39.935Z,100564.63
2022-10-18T23:24:44.285Z,100567.31
2022-10-18T23:28:49.055Z,100569.97
2022-10-18T23:32:52.302Z,100568.19
2022-10-18T23:36:56.716Z,100572.63
2022-10-18T23:40:59.777Z,100568.19
2022-10-18T23:45:02.944Z,100574.44
2022-10-18T23:49:06.051Z,100579.75
2022-10-18T23:53:10.568Z,100579.78
2022-10-18T23:57:13.635Z,100593.06
